Time,TemperatureF,DewpointF,PressureIn,WindDirection,WindDirectionDegrees,WindSpeedMPH,WindSpeedGustMPH,Humidity,HourlyPrecipIn,Conditions,Clouds,dailyrainin,SoftwareType,DateUTC
2013-01-10 00:00:00,32.4,25.7,30.55,NNW,338,0.4,0.9,76,0.00,,,0.00,WUHU216HW,2013-01-10 05:00:00,
2013-01-10 00:05:00,32.0,25.7,30.55,NE,45,0.0,0.9,77,0.00,,,0.00,WUHU216HW,2013-01-10 05:05:00,
2013-01-10 00:11:00,31.7,25.3,30.55,ENE,68,0.0,0.0,77,0.00,,,0.00,WUHU216HW,2013-01-10 05:11:00,
2013-01-10 00:16:00,31.7,25.7,30.55,ENE,68,0.0,0.0,78,0.00,,,0.00,WUHU216HW,2013-01-10 05:16:00,
2013-01-10 00:21:00,31.5,25.5,30.56,SSE,158,1.6,1.6,78,0.00,,,0.00,WUHU216HW,2013-01-10 05:21:00,
2013-01-10 00:26:00,31.1,25.1,30.57,SSE,158,2.2,3.1,78,0.00,,,0.00,WUHU216HW,2013-01-10 05:26:00,
2013-01-10 00:31:00,30.8,24.8,30.57,South,180,4.9,4.9,78,0.00,,,0.00,WUHU216HW,2013-01-10 05:31:00,
2013-01-10 00:36:00,30.4,24.4,30.57,SSW,203,5.4,5.4,78,0.00,,,0.00,WUHU216HW,2013-01-10 05:36:00,
2013-01-10 00:41:00,30.2,24.5,30.58,SSW,203,4.0,6.0,79,0.00,,,0.00,WUHU216HW,2013-01-10 05:41:00,
2013-01-10 00:46:00,29.9,24.1,30.59,SSW,203,4.3,6.0,79,0.00,,,0.00,WUHU216HW,2013-01-10 05:46:00,
2013-01-10 00:51:00,29.7,24.3,30.60,SSW,203,2.5,4.3,80,0.00,,,0.00,WUHU216HW,2013-01-10 05:51:00,
2013-01-10 00:56:00,29.5,24.1,30.60,SSW,203,4.0,4.0,80,0.00,,,0.00,WUHU216HW,2013-01-10 05:56:00,
2013-01-10 01:01:00,29.3,24.2,30.60,SSW,203,4.9,5.4,81,0.00,,,0.00,WUHU216HW,2013-01-10 06:01:00,
2013-01-10 01:06:00,29.5,24.7,30.61,South,180,6.7,6.7,82,0.00,,,0.00,WUHU216HW,2013-01-10 06:06:00,
2013-01-10 01:11:00,29.7,25.2,30.61,SSE,158,6.0,7.6,83,0.00,,,0.00,WUHU216HW,2013-01-10 06:11:00,
2013-01-10 01:16:00,29.9,25.4,30.62,SSW,203,6.5,7.6,83,0.00,,,0.00,WUHU216HW,2013-01-10 06:16:00,
2013-01-10 01:21:00,29.9,25.4,30.62,SSW,203,5.8,6.9,83,0.00,,,0.00,WUHU216HW,2013-01-10 06:21:00,
2013-01-10 01:26:00,29.9,25.4,30.63,SSW,203,4.0,6.3,83,0.00,,,0.00,WUHU216HW,2013-01-10 06:26:00,
2013-01-10 01:31:00,29.9,25.4,30.63,SSW,203,6.3,6.5,83,0.00,,,0.00,WUHU216HW,2013-01-10 06:31:00,
2013-01-10 01:36:00,29.9,25.4,30.63,SSW,203,5.4,6.5,83,0.00,,,0.00,WUHU216HW,2013-01-10 06:36:00,
2013-01-10 01:41:00,29.9,25.4,30.63,SSW,203,5.4,6.0,83,0.00,,,0.00,WUHU216HW,2013-01-10 06:41:00,
2013-01-10 02:05:00,29.2,24.9,30.65,SSE,158,2.5,4.0,84,0.00,,,0.00,WUHU216HW,2013-01-10 07:05:00,
2013-01-10 02:10:00,29.0,24.8,30.65,SSE,158,3.4,4.0,84,0.00,,,0.00,WUHU216HW,2013-01-10 07:10:00,
2013-01-10 02:15:00,28.8,24.6,30.65,SSE,158,3.8,4.0,84,0.00,,,0.00,WUHU216HW,2013-01-10 07:15:00,
2013-01-10 02:20:00,28.8,24.8,30.65,South,180,3.1,4.3,85,0.00,,,0.00,WUHU216HW,2013-01-10 07:20:00,
2013-01-10 02:25:00,28.6,24.7,30.65,SE,135,2.0,4.3,85,0.00,,,0.00,WUHU216HW,2013-01-10 07:25:00,
2013-01-10 02:30:00,28.6,24.7,30.65,SE,135,1.6,3.1,85,0.00,,,0.00,WUHU216HW,2013-01-10 07:30:00,
2013-01-10 02:35:00,28.6,24.7,30.65,SE,135,3.4,3.4,85,0.00,,,0.00,WUHU216HW,2013-01-10 07:35:00,
2013-01-10 02:40:00,28.6,24.7,30.65,SE,135,1.8,3.4,85,0.00,,,0.00,WUHU216HW,2013-01-10 07:40:00,
2013-01-10 02:45:00,28.6,24.7,30.65,SE,135,0.9,3.1,85,0.00,,,0.00,WUHU216HW,2013-01-10 07:45:00,
2013-01-10 02:50:00,28.4,24.5,30.65,SE,135,0.7,1.8,85,0.00,,,0.00,WUHU216HW,2013-01-10 07:50:00,
2013-01-10 02:55:00,28.4,24.5,30.65,SE,135,0.7,1.1,85,0.00,,,0.00,WUHU216HW,2013-01-10 07:55:00,
2013-01-10 03:00:00,28.3,24.3,30.65,SE,135,1.1,1.1,85,0.00,,,0.00,WUHU216HW,2013-01-10 08:00:00,
2013-01-10 03:05:00,28.1,23.9,30.65,SE,135,1.1,1.1,84,0.00,,,0.00,WUHU216HW,2013-01-10 08:05:00,
2013-01-10 03:10:00,27.9,23.9,30.65,East,90,0.4,1.3,85,0.00,,,0.00,WUHU216HW,2013-01-10 08:10:00,
2013-01-10 03:15:00,28.1,24.4,30.65,East,90,1.6,1.6,86,0.00,,,0.00,WUHU216HW,2013-01-10 08:15:00,
2013-01-10 03:20:00,28.1,24.1,30.65,ESE,113,1.1,2.2,85,0.00,,,0.00,WUHU216HW,2013-01-10 08:20:00,
2013-01-10 03:25:00,27.9,24.2,30.64,East,90,1.6,2.2,86,0.00,,,0.00,WUHU216HW,2013-01-10 08:25:00,
2013-01-10 03:30:00,27.7,23.8,30.64,ESE,113,2.0,2.0,85,0.00,,,0.00,WUHU216HW,2013-01-10 08:30:00,
2013-01-10 22:43:00,36.5,32.9,30.24,ESE,113,10.5,10.5,87,0.05,,,0.00,WUHU216HW,2013-01-11 03:43:00,
2013-01-10 22:48:00,36.5,32.9,30.22,East,90,19.9,19.9,87,0.05,,,0.10,WUHU216HW,2013-01-11 03:48:00,
2013-01-10 22:53:00,36.5,32.9,30.21,ESE,113,13.0,19.9,87,0.05,,,0.11,WUHU216HW,2013-01-11 03:53:00,
2013-01-10 22:58:00,36.5,32.9,30.21,ESE,113,9.8,16.6,87,0.05,,,0.11,WUHU216HW,2013-01-11 03:58:00,
2013-01-10 23:03:00,36.7,33.1,30.21,ESE,113,7.4,18.3,87,0.05,,,0.11,WUHU216HW,2013-01-11 04:03:00,
2013-01-10 23:08:00,36.7,32.9,30.21,ESE,113,9.2,18.3,86,0.04,,,0.12,WUHU216HW,2013-01-11 04:08:00,
2013-01-10 23:13:00,36.7,32.9,30.20,East,90,11.4,15.2,86,0.05,,,0.13,WUHU216HW,2013-01-11 04:13:00,
2013-01-10 23:18:00,36.7,33.1,30.20,SE,135,9.8,15.2,87,0.04,,,0.13,WUHU216HW,2013-01-11 04:18:00,
2013-01-10 23:24:00,36.7,33.1,30.20,SE,135,9.6,14.8,87,0.05,,,0.14,WUHU216HW,2013-01-11 04:24:00,
2013-01-10 23:29:00,36.7,33.1,30.20,SE,135,11.9,14.8,87,0.05,,,0.14,WUHU216HW,2013-01-11 04:29:00,
2013-01-10 23:34:00,36.7,33.1,30.20,ESE,113,9.2,13.9,87,0.04,,,0.14,WUHU216HW,2013-01-11 04:34:00,
2013-01-10 23:39:00,36.7,33.1,30.20,ESE,113,7.8,13.4,87,0.05,,,0.15,WUHU216HW,2013-01-11 04:39:00,
2013-01-10 23:44:00,36.7,32.9,30.19,SE,135,12.5,14.5,86,0.05,,,0.15,WUHU216HW,2013-01-11 04:44:00,
2013-01-10 23:49:00,36.9,33.0,30.19,ESE,113,11.4,14.5,86,0.04,,,0.15,WUHU216HW,2013-01-11 04:49:00,
2013-01-10 23:54:00,37.1,33.2,30.19,ESE,113,8.3,13.0,86,0.04,,,0.15,WUHU216HW,2013-01-11 04:54:00,
2013-01-10 23:59:00,37.1,33.2,30.19,SE,135,10.1,13.2,86,0.04,,,0.15,WUHU216HW,2013-01-11 04:59:00,